Time;durP1;ratioP1;P1;durP2;ratioP2;P2;SDS_P1;SDS_P2;PMS_P1;PMS_P2;Temp;Humidity;BMP_temperature;BMP_pressure;BME280_temperature;BME280_humidity;BME280_pressure;Samples;Min_cycle;Max_cycle;Signal;HPM_P1;HPM_P2
2021/11/26 00:02:17;;;;;;;49.88;16.02;;;2.70;99.60;;;;;;4984579;28;20022;-66
2021/11/26 00:04:43;;;;;;;49.70;15.95;;;2.70;99.60;;;;;;4979872;28;20416;-67
2021/11/26 00:07:09;;;;;;;50.60;15.70;;;2.80;99.60;;;;;;4987418;28;20378;-66
2021/11/26 00:09:34;;;;;;;45.53;14.80;;;2.70;99.60;;;;;;4983747;28;20022;-66
2021/11/26 00:12:00;;;;;;;48.15;13.05;;;2.70;99.60;;;;;;4984050;28;20057;-66
2021/11/26 00:14:29;;;;;;;37.95;14.00;;;2.80;99.60;;;;;;4985750;28;20057;-66
2021/11/26 00:16:58;;;;;;;51.00;14.23;;;2.80;99.60;;;;;;4982949;28;20034;-66
2021/11/26 00:19:24;;;;;;;42.90;13.98;;;2.80;99.60;;;;;;4978715;28;20026;-66
2021/11/26 00:21:51;;;;;;;39.97;13.00;;;2.80;99.60;;;;;;4981871;28;20121;-66
2021/11/26 00:24:17;;;;;;;36.47;12.75;;;2.80;99.60;;;;;;4983612;28;20057;-66
2021/11/26 00:26:45;;;;;;;39.25;13.30;;;2.80;99.60;;;;;;4980570;28;20516;-66
2021/11/26 00:29:11;;;;;;;42.92;13.95;;;2.80;99.60;;;;;;4982158;28;20109;-66
2021/11/26 00:31:37;;;;;;;39.45;13.88;;;2.80;99.60;;;;;;4982863;28;20126;-66
2021/11/26 00:34:04;;;;;;;34.25;13.32;;;2.80;99.60;;;;;;4982657;28;20204;-66
2021/11/26 00:36:30;;;;;;;46.85;13.30;;;2.80;99.60;;;;;;4984309;28;20084;-66
2021/11/26 00:38:56;;;;;;;31.25;12.23;;;2.80;99.60;;;;;;4977636;28;20031;-66
2021/11/26 00:41:21;;;;;;;37.75;13.30;;;2.80;99.60;;;;;;4969091;28;20026;-66
2021/11/26 00:43:47;;;;;;;36.83;13.00;;;2.80;99.60;;;;;;4983797;28;20485;-66
2021/11/26 00:46:13;;;;;;;35.58;14.32;;;2.80;99.60;;;;;;4982846;28;20149;-66
2021/11/26 00:48:38;;;;;;;42.08;14.65;;;2.80;99.60;;;;;;4983539;28;20026;-66
2021/11/26 00:51:04;;;;;;;36.30;14.10;;;2.80;99.60;;;;;;4980849;28;20039;-66
2021/11/26 00:53:30;;;;;;;33.95;13.00;;;2.80;99.60;;;;;;4983716;28;20121;-66
2021/11/26 00:55:55;;;;;;;44.28;14.18;;;2.80;99.60;;;;;;4981052;28;20041;-66
2021/11/26 00:58:21;;;;;;;39.58;14.20;;;2.70;99.60;;;;;;4987982;28;20034;-66
2021/11/26 01:00:46;;;;;;;38.47;13.77;;;2.70;99.60;;;;;;4965850;28;20405;-66
2021/11/26 01:03:12;;;;;;;48.60;13.85;;;2.80;99.70;;;;;;4986622;28;20026;-66
2021/11/26 01:05:37;;;;;;;39.33;14.45;;;2.70;99.60;;;;;;4982762;28;20131;-66
2021/11/26 01:08:03;;;;;;;38.80;13.43;;;2.70;99.60;;;;;;4978708;28;20548;-66
2021/11/26 01:10:29;;;;;;;40.17;12.98;;;2.70;99.60;;;;;;4980660;28;20058;-66
2021/11/26 01:12:55;;;;;;;34.35;13.75;;;2.60;99.60;;;;;;4983599;28;20588;-66
2021/11/26 01:15:25;;;;;;;40.35;13.48;;;2.60;99.60;;;;;;4981998;28;20018;-66
2021/11/26 01:17:51;;;;;;;34.33;13.18;;;2.60;99.70;;;;;;4986966;28;20054;-66
2021/11/26 01:20:19;;;;;;;35.78;12.48;;;2.60;99.60;;;;;;4981863;28;20127;-66
2021/11/26 01:22:45;;;;;;;38.03;13.23;;;2.60;99.60;;;;;;4984226;28;20022;-66
2021/11/26 01:25:12;;;;;;;30.50;12.00;;;2.60;99.70;;;;;;4987096;28;20516;-66
2021/11/26 01:27:38;;;;;;;31.17;12.68;;;2.60;99.60;;;;;;4981399;28;20026;-66
2021/11/26 01:30:20;;;;;;;37.10;13.07;;;2.60;99.70;;;;;;4979599;28;20100;-66
2021/11/26 01:32:45;;;;;;;39.33;13.07;;;2.60;99.70;;;;;;4980634;28;20026;-66
2021/11/26 01:35:11;;;;;;;32.00;13.57;;;2.60;99.70;;;;;;4987020;28;20040;-66
2021/11/26 01:37:36;;;;;;;44.35;13.15;;;2.60;99.60;;;;;;4984851;28;20033;-66
2021/11/26 01:40:04;;;;;;;29.88;12.50;;;2.60;99.70;;;;;;4978998;28;20030;-66
2021/11/26 01:42:29;;;;;;;28.58;12.00;;;2.60;99.70;;;;;;4968563;28;20031;-66
2021/11/26 01:44:55;;;;;;;35.47;12.77;;;2.60;99.60;;;;;;4971471;28;20073;-66
2021/11/26 01:47:20;;;;;;;31.45;11.55;;;2.60;99.70;;;;;;4977599;28;20104;-66
2021/11/26 01:49:46;;;;;;;30.33;11.43;;;2.60;99.70;;;;;;4978056;28;20092;-66
2021/11/26 01:52:11;;;;;;;31.52;13.55;;;2.60;99.70;;;;;;4983011;28;20445;-66
2021/11/26 01:54:37;;;;;;;33.72;12.10;;;2.60;99.70;;;;;;4980798;28;20038;-66
2021/11/26 01:57:03;;;;;;;26.63;12.23;;;2.60;99.70;;;;;;4983380;28;20045;-66
2021/11/26 01:59:31;;;;;;;35.20;12.15;;;2.60;99.60;;;;;;4961482;28;20023;-66
2021/11/26 02:01:56;;;;;;;32.17;11.85;;;2.50;99.60;;;;;;4981100;28;20057;-66
2021/11/26 02:04:22;;;;;;;34.92;12.95;;;2.50;99.60;;;;;;4990109;28;20568;-66
2021/11/26 02:06:47;;;;;;;30.85;11.90;;;2.50;99.60;;;;;;4984844;28;20353;-66
2021/11/26 02:09:13;;;;;;;30.00;12.38;;;2.50;99.60;;;;;;4975913;28;20125;-66
2021/11/26 02:11:39;;;;;;;30.10;12.07;;;2.50;99.60;;;;;;4981895;28;20031;-66
2021/11/26 02:14:04;;;;;;;35.00;12.70;;;2.50;99.60;;;;;;4977408;28;20117;-66
2021/11/26 02:16:30;;;;;;;31.83;12.73;;;2.50;99.60;;;;;;4981650;28;20089;-66
2021/11/26 02:18:55;;;;;;;35.88;12.80;;;2.50;99.50;;;;;;4979893;28;20030;-66
2021/11/26 02:21:21;;;;;;;35.50;13.15;;;2.50;99.60;;;;;;4980955;28;20034;-66
2021/11/26 02:23:48;;;;;;;31.63;14.32;;;2.50;99.60;;;;;;4981322;28;20026;-66
2021/11/26 02:26:14;;;;;;;34.47;13.93;;;2.40;99.50;;;;;;4982051;28;20054;-66
2021/11/26 02:28:41;;;;;;;30.08;13.20;;;2.40;99.50;;;;;;4980328;28;20065;-66
2021/11/26 02:31:06;;;;;;;36.40;14.90;;;2.50;99.60;;;;;;4979941;28;20473;-66
2021/11/26 02:33:32;;;;;;;43.30;15.65;;;2.40;99.50;;;;;;4983826;28;20050;-66
2021/11/26 02:35:58;;;;;;;34.67;16.45;;;2.40;99.50;;;;;;4982655;28;20026;-66
2021/11/26 02:38:25;;;;;;;40.47;17.20;;;2.40;99.50;;;;;;4994705;28;20445;-66
2021/11/26 02:40:51;;;;;;;37.78;17.38;;;2.40;99.40;;;;;;4982552;28;20378;-66
2021/11/26 02:43:17;;;;;;;39.80;17.92;;;2.40;99.50;;;;;;4991619;28;20110;-66
2021/11/26 02:45:44;;;;;;;45.42;19.20;;;2.40;99.40;;;;;;4984621;28;20042;-66
2021/11/26 02:48:11;;;;;;;41.80;18.63;;;2.40;99.50;;;;;;4982965;28;20066;-66
2021/11/26 02:50:37;;;;;;;47.63;21.38;;;2.40;99.40;;;;;;4980230;28;20460;-66
2021/11/26 02:53:04;;;;;;;42.60;19.77;;;2.40;99.50;;;;;;4981608;28;20035;-66
2021/11/26 02:55:32;;;;;;;42.03;19.13;;;2.40;99.50;;;;;;4984752;28;20097;-66
2021/11/26 02:57:58;;;;;;;37.55;18.38;;;2.40;99.50;;;;;;4988154;28;20034;-66
2021/11/26 03:00:25;;;;;;;48.47;21.10;;;2.40;99.50;;;;;;4964700;28;20041;-66
2021/11/26 03:02:52;;;;;;;45.88;21.33;;;2.40;99.50;;;;;;4974362;28;20027;-66
2021/11/26 03:05:18;;;;;;;43.40;20.10;;;2.40;99.50;;;;;;4982686;28;20041;-66
2021/11/26 03:07:44;;;;;;;52.17;20.30;;;2.40;99.50;;;;;;4982265;28;20493;-66
2021/11/26 03:10:17;;;;;;;38.72;21.02;;;2.40;99.50;;;;;;4983491;28;20034;-66
2021/11/26 03:12:47;;;;;;;44.00;20.95;;;2.40;99.50;;;;;;4979092;28;20035;-66
2021/11/26 03:15:14;;;;;;;50.42;23.42;;;2.40;99.40;;;;;;4985626;28;20392;-66
2021/11/26 03:17:39;;;;;;;55.17;23.58;;;2.40;99.50;;;;;;4982059;28;20022;-66
2021/11/26 03:20:05;;;;;;;56.78;23.90;;;2.40;99.50;;;;;;4981903;28;20030;-66
2021/11/26 03:22:31;;;;;;;47.85;22.70;;;2.40;99.50;;;;;;4990473;28;20022;-66
2021/11/26 03:24:56;;;;;;;51.95;22.70;;;2.50;99.50;;;;;;4985008;28;20055;-66
2021/11/26 03:27:22;;;;;;;52.50;23.15;;;2.40;99.40;;;;;;4987722;28;20053;-66
2021/11/26 03:29:47;;;;;;;56.38;22.40;;;2.40;99.50;;;;;;4963479;28;20048;-66
2021/11/26 03:32:13;;;;;;;54.05;24.08;;;2.40;99.50;;;;;;4984259;28;20468;-66
2021/11/26 03:34:39;;;;;;;56.10;25.27;;;2.40;99.50;;;;;;4980942;28;20042;-66
2021/11/26 03:37:04;;;;;;;58.33;25.15;;;2.40;99.50;;;;;;4986707;28;20026;-66
2021/11/26 03:39:30;;;;;;;60.47;24.17;;;2.40;99.40;;;;;;4985481;28;20018;-66
2021/11/26 03:41:55;;;;;;;60.50;26.17;;;2.40;99.50;;;;;;4986390;28;20022;-66
2021/11/26 03:44:21;;;;;;;69.82;27.02;;;2.40;99.50;;;;;;4977876;28;20500;-66
2021/11/26 03:46:47;;;;;;;66.20;26.92;;;2.40;99.50;;;;;;4983936;28;20030;-66
2021/11/26 03:49:12;;;;;;;65.15;28.17;;;2.50;99.50;;;;;;4988676;28;20527;-66
2021/11/26 03:51:38;;;;;;;59.60;27.73;;;2.50;99.50;;;;;;4986636;28;20030;-66
2021/11/26 03:54:03;;;;;;;65.68;26.73;;;2.40;99.50;;;;;;5008050;23;21779;-66
2021/11/26 03:56:29;;;;;;;73.13;27.80;;;2.40;99.50;;;;;;5021948;28;20037;-65
2021/11/26 03:58:54;;;;;;;62.65;26.95;;;2.50;99.60;;;;;;5018331;28;20024;-65
2021/11/26 04:01:20;;;;;;;76.82;28.13;;;2.50;99.50;;;;;;5011872;28;20500;-66
2021/11/26 04:03:45;;;;;;;62.83;28.10;;;2.50;99.60;;;;;;4998279;28;20030;-65
2021/11/26 04:06:11;;;;;;;64.63;26.52;;;2.50;99.60;;;;;;5002368;28;20034;-66
2021/11/26 04:08:36;;;;;;;74.47;26.58;;;2.60;99.60;;;;;;4997348;28;20408;-67
2021/11/26 04:11:02;;;;;;;66.07;27.60;;;2.60;99.60;;;;;;4999924;28;20167;-68
2021/11/26 04:13:27;;;;;;;61.53;26.05;;;2.60;99.60;;;;;;5000843;28;20304;-65
2021/11/26 04:16:00;;;;;;;70.72;26.38;;;2.60;99.60;;;;;;5001861;28;20037;-66
2021/11/26 04:18:26;;;;;;;64.43;27.10;;;2.60;99.60;;;;;;4997496;28;20426;-65
2021/11/26 04:20:51;;;;;;;69.03;27.48;;;2.60;99.60;;;;;;4999104;28;20080;-66
2021/11/26 04:23:17;;;;;;;64.85;26.73;;;2.60;99.70;;;;;;5002735;28;20038;-66
2021/11/26 04:25:42;;;;;;;67.55;26.02;;;2.60;99.70;;;;;;4996010;28;20034;-65
2021/11/26 04:28:08;;;;;;;65.15;25.27;;;2.60;99.70;;;;;;5001752;28;20406;-67
2021/11/26 04:30:33;;;;;;;77.20;26.75;;;2.60;99.70;;;;;;4996567;28;20128;-66
2021/11/26 04:33:00;;;;;;;70.10;26.33;;;2.60;99.70;;;;;;4998916;28;20045;-66
2021/11/26 04:35:26;;;;;;;76.75;26.85;;;2.60;99.70;;;;;;5000324;28;20066;-66
2021/11/26 04:37:51;;;;;;;79.75;27.85;;;2.60;99.70;;;;;;5001358;28;20371;-65
2021/11/26 04:40:17;;;;;;;65.90;27.17;;;2.60;99.70;;;;;;4997730;28;20053;-66
2021/11/26 04:42:43;;;;;;;63.50;24.67;;;2.60;99.70;;;;;;5001042;28;20203;-67
2021/11/26 04:45:12;;;;;;;65.00;24.25;;;2.60;99.70;;;;;;4995220;28;20029;-67
2021/11/26 04:47:38;;;;;;;67.75;25.02;;;2.70;99.70;;;;;;5009133;28;20492;-66
2021/11/26 04:50:07;;;;;;;65.63;24.75;;;2.60;99.80;;;;;;4994866;28;20511;-66
2021/11/26 04:52:32;;;;;;;66.68;25.55;;;2.70;99.80;;;;;;4996267;28;20275;-65
2021/11/26 04:54:58;;;;;;;65.53;24.23;;;2.70;99.80;;;;;;4997356;28;20349;-65
2021/11/26 04:57:23;;;;;;;69.03;23.63;;;2.70;99.80;;;;;;5001235;28;20033;-66
2021/11/26 04:59:49;;;;;;;64.13;24.63;;;2.70;99.80;;;;;;4993923;28;20031;-66
2021/11/26 05:02:15;;;;;;;64.63;25.15;;;2.70;99.80;;;;;;5000285;28;20034;-65
2021/11/26 05:04:40;;;;;;;70.80;24.60;;;2.80;99.80;;;;;;4997921;28;20033;-66
2021/11/26 05:07:06;;;;;;;75.88;24.58;;;2.70;99.80;;;;;;4997096;28;20033;-66
2021/11/26 05:09:32;;;;;;;61.65;23.73;;;2.80;99.80;;;;;;4994019;28;20102;-65
2021/11/26 05:11:57;;;;;;;64.93;23.75;;;2.80;99.90;;;;;;4994504;28;20049;-65
2021/11/26 05:14:24;;;;;;;70.15;24.52;;;2.80;99.90;;;;;;5012676;28;20530;-65
2021/11/26 05:16:51;;;;;;;77.55;24.42;;;2.80;99.80;;;;;;4998022;28;20045;-66
2021/11/26 05:19:17;;;;;;;67.90;25.20;;;2.80;99.80;;;;;;5012850;28;20087;-66
2021/11/26 05:21:43;;;;;;;64.85;24.08;;;2.80;99.90;;;;;;4996899;28;20248;-66
2021/11/26 05:24:09;;;;;;;67.72;23.63;;;2.80;99.90;;;;;;4996127;28;20105;-65
2021/11/26 05:26:35;;;;;;;67.95;23.85;;;2.90;99.90;;;;;;4999429;28;20358;-65
2021/11/26 05:29:00;;;;;;;71.63;24.23;;;2.90;99.90;;;;;;4995103;28;20112;-65
2021/11/26 05:31:26;;;;;;;68.18;22.95;;;2.90;99.90;;;;;;4994028;28;20168;-66
2021/11/26 05:33:53;;;;;;;70.28;24.25;;;3.00;99.90;;;;;;4998875;28;20393;-66
2021/11/26 05:36:19;;;;;;;69.75;24.17;;;2.90;99.90;;;;;;4999512;28;20018;-66
2021/11/26 05:38:44;;;;;;;78.10;24.70;;;3.00;99.90;;;;;;5000060;28;20032;-66
2021/11/26 05:41:10;;;;;;;67.03;22.20;;;3.00;99.90;;;;;;4998226;28;20052;-67
2021/11/26 05:43:35;;;;;;;77.80;24.00;;;3.00;99.90;;;;;;5001035;28;20361;-66
2021/11/26 05:46:01;;;;;;;62.88;23.13;;;3.00;99.90;;;;;;4994560;28;20061;-67
2021/11/26 05:48:26;;;;;;;62.15;23.30;;;3.10;99.90;;;;;;4999071;28;20345;-66
2021/11/26 05:50:52;;;;;;;73.18;23.45;;;3.10;99.90;;;;;;4996322;28;20026;-66
2021/11/26 05:53:18;;;;;;;66.32;22.50;;;3.10;99.90;;;;;;5000869;28;20128;-66
2021/11/26 05:55:43;;;;;;;64.38;22.67;;;3.10;99.90;;;;;;4997328;28;20033;-66
2021/11/26 05:58:09;;;;;;;65.95;21.95;;;3.10;99.90;;;;;;4999041;28;20030;-66
2021/11/26 06:00:35;;;;;;;47.08;20.88;;;3.10;99.90;;;;;;4986465;28;20045;-66
2021/11/26 06:03:02;;;;;;;69.18;23.20;;;3.10;99.90;;;;;;4997977;28;20517;-65
2021/11/26 06:05:27;;;;;;;54.28;22.02;;;3.10;99.90;;;;;;4999172;28;20022;-66
2021/11/26 06:07:53;;;;;;;71.65;22.38;;;3.20;99.90;;;;;;4991795;28;20092;-66
2021/11/26 06:10:20;;;;;;;62.20;21.77;;;3.10;99.90;;;;;;4999308;28;20033;-66
2021/11/26 06:12:48;;;;;;;69.97;24.25;;;3.20;99.90;;;;;;5002024;28;20105;-66
2021/11/26 06:15:15;;;;;;;67.45;23.20;;;3.20;99.90;;;;;;4997042;28;20491;-66
2021/11/26 06:17:42;;;;;;;64.57;23.63;;;3.20;99.90;;;;;;5003874;28;20022;-66
2021/11/26 06:20:09;;;;;;;63.75;23.25;;;3.20;99.90;;;;;;5000363;28;20573;-65
2021/11/26 06:22:35;;;;;;;66.45;23.08;;;3.20;99.90;;;;;;4997765;28;20135;-66
2021/11/26 06:25:01;;;;;;;56.85;22.25;;;3.20;99.90;;;;;;4998110;28;20093;-67
2021/11/26 06:27:26;;;;;;;48.03;20.67;;;3.20;99.80;;;;;;5005397;28;20038;-65
2021/11/26 06:29:52;;;;;;;50.50;20.70;;;3.20;99.80;;;;;;5005532;28;20108;-65
2021/11/26 06:32:18;;;;;;;49.97;20.15;;;3.20;99.80;;;;;;5005777;28;20176;-66
2021/11/26 06:34:43;;;;;;;47.03;20.40;;;3.30;99.70;;;;;;5015328;28;20124;-66
2021/11/26 06:37:09;;;;;;;51.53;19.38;;;3.20;99.70;;;;;;4998164;28;20476;-65
2021/11/26 06:39:35;;;;;;;50.50;19.83;;;3.30;99.70;;;;;;5004433;28;20022;-65
2021/11/26 06:42:01;;;;;;;46.88;20.00;;;3.30;99.80;;;;;;5004689;28;20116;-65
2021/11/26 06:44:26;;;;;;;53.78;20.90;;;3.30;99.70;;;;;;4998994;28;20056;-65
2021/11/26 06:46:52;;;;;;;48.47;20.42;;;3.30;99.70;;;;;;4992376;28;20449;-65
2021/11/26 06:49:17;;;;;;;56.45;20.55;;;3.30;99.70;;;;;;4999489;28;20044;-65
2021/11/26 06:51:43;;;;;;;58.03;20.83;;;3.40;99.70;;;;;;5002872;28;20036;-66
2021/11/26 06:54:08;;;;;;;47.65;21.08;;;3.40;99.70;;;;;;4997119;28;20135;-65
2021/11/26 06:56:34;;;;;;;55.72;20.95;;;3.30;99.70;;;;;;5003239;28;20026;-66
2021/11/26 06:59:00;;;;;;;53.70;21.23;;;3.30;99.70;;;;;;4998524;28;20085;-65
2021/11/26 07:01:26;;;;;;;51.17;20.73;;;3.30;99.70;;;;;;4998346;28;20018;-66
2021/11/26 07:03:54;;;;;;;55.30;20.88;;;3.40;99.70;;;;;;5002395;28;20024;-65
2021/11/26 07:06:20;;;;;;;61.25;21.63;;;3.40;99.70;;;;;;4995530;28;20021;-65
2021/11/26 07:08:45;;;;;;;54.78;20.55;;;3.40;99.70;;;;;;4994153;28;20468;-65
2021/11/26 07:11:11;;;;;;;57.33;21.80;;;3.40;99.70;;;;;;4998030;28;20037;-65
2021/11/26 07:13:36;;;;;;;56.40;19.67;;;3.40;99.70;;;;;;5001214;28;20519;-65
2021/11/26 07:16:02;;;;;;;55.28;20.15;;;3.40;99.70;;;;;;5000920;28;20084;-66
2021/11/26 07:18:27;;;;;;;54.63;21.10;;;3.40;99.80;;;;;;4998713;28;20068;-65
2021/11/26 07:20:53;;;;;;;55.13;19.48;;;3.40;99.80;;;;;;4999169;28;20038;-66
2021/11/26 07:23:18;;;;;;;51.40;20.52;;;3.40;99.80;;;;;;4992063;28;20205;-65
2021/11/26 07:25:44;;;;;;;53.45;20.52;;;3.40;99.80;;;;;;4999862;28;20091;-65
2021/11/26 07:28:09;;;;;;;46.47;19.35;;;3.40;99.80;;;;;;4998245;28;20057;-65
2021/11/26 07:30:35;;;;;;;61.83;20.95;;;3.40;99.80;;;;;;5000774;28;20152;-65
2021/11/26 07:33:00;;;;;;;56.05;21.38;;;3.40;99.80;;;;;;4999010;28;22083;-65
2021/11/26 07:35:26;;;;;;;52.35;20.70;;;3.40;99.80;;;;;;5002243;28;20380;-65
2021/11/26 07:37:52;;;;;;;49.22;19.25;;;3.50;99.80;;;;;;4999373;28;20072;-65
2021/11/26 07:40:18;;;;;;;49.33;19.63;;;3.40;99.80;;;;;;5002384;28;20083;-65
2021/11/26 07:42:44;;;;;;;62.50;20.50;;;3.40;99.80;;;;;;4999990;28;20018;-65
2021/11/26 07:45:10;;;;;;;53.97;20.63;;;3.40;99.80;;;;;;4996459;28;20086;-65
2021/11/26 07:47:37;;;;;;;59.03;20.75;;;3.50;99.80;;;;;;4999340;28;20070;-66
2021/11/26 07:50:04;;;;;;;57.85;21.65;;;3.50;99.80;;;;;;4996786;28;20108;-65
2021/11/26 07:52:29;;;;;;;58.13;22.02;;;3.50;99.80;;;;;;5001958;28;20481;-65
2021/11/26 07:54:55;;;;;;;60.75;21.58;;;3.50;99.80;;;;;;4999955;28;20099;-65
2021/11/26 07:57:21;;;;;;;58.95;19.90;;;3.50;99.80;;;;;;5001151;28;20038;-65
2021/11/26 07:59:46;;;;;;;52.08;21.50;;;3.50;99.80;;;;;;4997635;28;20036;-65
2021/11/26 08:02:12;;;;;;;54.03;20.02;;;3.50;99.80;;;;;;4997726;28;20108;-66
2021/11/26 08:04:37;;;;;;;57.40;21.52;;;3.50;99.70;;;;;;4999871;28;20034;-65
2021/11/26 08:07:03;;;;;;;47.55;21.02;;;3.50;99.70;;;;;;4983856;28;20445;-65
2021/11/26 08:09:30;;;;;;;53.42;20.83;;;3.60;99.70;;;;;;4987996;28;20113;-65
2021/11/26 08:11:56;;;;;;;59.58;22.17;;;3.60;99.70;;;;;;5001722;28;20453;-65
2021/11/26 08:14:22;;;;;;;52.97;20.90;;;3.50;99.70;;;;;;4990332;28;20104;-65
2021/11/26 08:16:50;;;;;;;65.57;20.52;;;3.50;99.70;;;;;;4987184;28;20508;-65
2021/11/26 08:19:16;;;;;;;58.38;21.85;;;3.60;99.70;;;;;;4995051;28;20388;-65
2021/11/26 08:21:42;;;;;;;58.15;21.13;;;3.60;99.70;;;;;;5002587;28;20033;-65
2021/11/26 08:24:09;;;;;;;55.90;20.60;;;3.60;99.70;;;;;;4996346;28;20036;-66
2021/11/26 08:26:35;;;;;;;51.13;20.20;;;3.60;99.60;;;;;;5003200;28;20026;-65
2021/11/26 08:29:03;;;;;;;54.05;20.42;;;3.60;99.60;;;;;;5000260;28;20121;-66
2021/11/26 08:31:28;;;;;;;52.88;20.38;;;3.60;99.60;;;;;;4996604;28;20449;-65
2021/11/26 08:33:54;;;;;;;48.10;20.88;;;3.60;99.60;;;;;;4992977;28;20114;-65
2021/11/26 08:36:20;;;;;;;48.20;20.25;;;3.60;99.60;;;;;;5002405;28;20117;-65
2021/11/26 08:38:47;;;;;;;40.30;17.88;;;3.60;99.50;;;;;;4995164;28;20078;-65
2021/11/26 08:41:13;;;;;;;49.83;19.42;;;3.60;99.50;;;;;;5001967;28;20017;-65
2021/11/26 08:43:38;;;;;;;46.83;19.60;;;3.60;99.50;;;;;;5001209;28;20499;-65
2021/11/26 08:46:04;;;;;;;48.35;19.90;;;3.60;99.40;;;;;;5000768;28;20045;-65
2021/11/26 08:48:29;;;;;;;48.03;19.08;;;3.60;99.40;;;;;;4997543;28;20030;-65
2021/11/26 08:50:55;;;;;;;38.67;18.05;;;3.70;99.30;;;;;;5000843;28;20044;-65
2021/11/26 08:53:21;;;;;;;39.80;17.80;;;3.70;99.30;;;;;;4999040;28;20444;-65
2021/11/26 08:55:50;;;;;;;39.10;17.63;;;3.60;99.30;;;;;;5003269;28;20030;-66
2021/11/26 08:58:16;;;;;;;41.80;17.08;;;3.70;99.30;;;;;;4999123;28;20223;-65
2021/11/26 09:00:42;;;;;;;41.10;17.58;;;3.70;99.20;;;;;;5003258;28;20676;-65
2021/11/26 09:03:08;;;;;;;37.92;16.70;;;3.70;99.20;;;;;;5006605;28;20116;-65
2021/11/26 09:05:35;;;;;;;36.08;16.45;;;3.70;99.10;;;;;;4995667;28;20421;-66
2021/11/26 09:08:04;;;;;;;35.83;16.38;;;3.70;99.10;;;;;;4998735;28;20521;-66
2021/11/26 09:10:36;;;;;;;33.67;14.85;;;3.70;99.10;;;;;;5000912;28;20472;-65
2021/11/26 09:13:03;;;;;;;31.30;14.90;;;3.70;98.90;;;;;;5001964;28;20121;-65
2021/11/26 09:15:30;;;;;;;27.77;15.40;;;3.70;98.90;;;;;;4999868;28;20034;-65
2021/11/26 09:17:56;;;;;;;36.85;15.13;;;3.70;98.80;;;;;;5000080;28;20033;-66
2021/11/26 09:20:22;;;;;;;39.60;16.30;;;3.80;98.80;;;;;;4992421;28;20080;-65
2021/11/26 09:22:48;;;;;;;29.73;14.27;;;3.80;98.80;;;;;;5002228;28;20018;-65
2021/11/26 09:25:14;;;;;;;35.53;15.32;;;3.90;98.80;;;;;;4997234;28;20370;-66
2021/11/26 09:27:40;;;;;;;31.10;14.60;;;3.90;98.70;;;;;;5001856;28;20022;-65
2021/11/26 09:30:10;;;;;;;32.15;14.35;;;3.90;98.60;;;;;;5000471;28;20025;-65
2021/11/26 09:32:35;;;;;;;28.80;14.93;;;3.90;98.70;;;;;;5001957;28;20107;-65
2021/11/26 09:35:01;;;;;;;28.20;14.57;;;3.90;98.60;;;;;;4999844;28;20308;-66
2021/11/26 09:37:27;;;;;;;31.35;14.88;;;3.90;98.60;;;;;;5001033;28;20025;-65
2021/11/26 09:39:53;;;;;;;30.17;14.50;;;3.90;98.60;;;;;;4997136;28;20072;-65
2021/11/26 09:42:20;;;;;;;33.65;15.15;;;4.00;98.70;;;;;;5001524;28;20022;-66
2021/11/26 09:44:45;;;;;;;33.97;16.08;;;4.00;98.60;;;;;;4997488;28;20037;-65
2021/11/26 09:47:12;;;;;;;35.28;15.18;;;4.10;98.70;;;;;;5014391;28;20396;-65
2021/11/26 09:49:37;;;;;;;33.60;15.80;;;4.10;98.70;;;;;;4999115;28;20021;-65
2021/11/26 09:52:03;;;;;;;43.75;16.52;;;4.10;98.70;;;;;;4999869;28;20432;-65
2021/11/26 09:54:38;;;;;;;36.40;16.83;;;4.10;98.40;;;;;;5027620;23;20041;-77
2021/11/26 09:57:03;;;;;;;37.72;17.10;;;4.20;98.60;;;;;;5020832;28;20145;-77
2021/11/26 09:59:29;;;;;;;37.70;16.73;;;4.30;98.60;;;;;;5023977;28;20097;-76
2021/11/26 10:01:54;;;;;;;43.38;18.00;;;4.20;98.40;;;;;;5025530;28;20482;-76
2021/11/26 10:04:21;;;;;;;36.10;17.52;;;4.30;98.50;;;;;;5017468;28;20030;-77
2021/11/26 10:06:47;;;;;;;42.53;18.13;;;4.30;98.40;;;;;;5007735;28;20058;-77
2021/11/26 10:09:24;;;;;;;37.03;18.27;;;4.30;98.50;;;;;;5020828;28;20034;-77
2021/11/26 10:12:02;;;;;;;40.47;17.45;;;4.40;98.50;;;;;;5007939;28;20029;-76
2021/11/26 10:14:29;;;;;;;37.55;18.40;;;4.50;98.50;;;;;;5022035;28;20030;-76
2021/11/26 10:17:11;;;;;;;35.05;15.98;;;4.40;98.20;;;;;;5005517;28;20037;-76
2021/11/26 10:19:38;;;;;;;38.55;17.15;;;4.50;98.10;;;;;;4999330;28;20026;-77
2021/11/26 10:22:15;;;;;;;39.17;18.45;;;4.50;98.20;;;;;;5006344;28;20061;-77
2021/11/26 10:24:42;;;;;;;37.53;17.58;;;4.50;98.20;;;;;;5017367;28;20462;-77
2021/11/26 10:27:07;;;;;;;32.70;17.38;;;4.50;98.10;;;;;;5006790;28;20467;-77
2021/11/26 10:29:36;;;;;;;41.58;17.15;;;4.40;97.90;;;;;;5019931;28;20043;-77
2021/11/26 10:32:08;;;;;;;35.40;17.98;;;4.50;97.80;;;;;;5006065;28;20037;-78
2021/11/26 10:34:34;;;;;;;35.60;16.42;;;4.50;97.90;;;;;;5005297;28;20036;-77
2021/11/26 10:37:00;;;;;;;42.38;16.52;;;4.50;97.90;;;;;;5005301;28;20529;-78
2021/11/26 10:39:26;;;;;;;40.80;17.13;;;4.50;97.80;;;;;;5004113;28;20029;-77
2021/11/26 10:41:58;;;;;;;41.45;17.45;;;4.40;97.80;;;;;;5007791;28;20026;-77
2021/11/26 10:44:41;;;;;;;37.47;17.92;;;4.50;97.90;;;;;;5005595;28;20391;-77
2021/11/26 10:47:22;;;;;;;30.05;14.93;;;4.60;97.80;;;;;;5004009;28;20286;-78
2021/11/26 10:50:05;;;;;;;37.25;16.95;;;4.50;97.50;;;;;;5001017;28;20033;-79
2021/11/26 10:56:40;;;;;;;36.28;16.40;;;4.50;97.70;;;;;;5005796;28;20040;-78
2021/11/26 10:58:22;;;;;;;37.03;15.88;;;4.50;97.40;;;;;;4999548;28;20036;-78
2021/11/26 11:00:48;;;;;;;34.83;16.73;;;4.60;97.50;;;;;;5004754;28;20053;-78
2021/11/26 11:03:14;;;;;;;34.90;17.23;;;4.50;97.30;;;;;;5004713;28;20088;-78
2021/11/26 11:05:40;;;;;;;36.05;17.45;;;4.50;97.10;;;;;;5010728;28;20026;-78
2021/11/26 11:08:18;;;;;;;45.83;19.15;;;4.50;97.10;;;;;;5005836;28;20076;-78
2021/11/26 11:10:44;;;;;;;34.72;17.58;;;4.60;97.10;;;;;;5008042;28;20171;-78
2021/11/26 11:13:13;;;;;;;38.30;18.25;;;4.50;97.10;;;;;;5022920;28;20120;-78
2021/11/26 11:15:39;;;;;;;35.58;17.17;;;4.50;97.30;;;;;;5008244;28;20054;-78
2021/11/26 11:18:06;;;;;;;38.92;18.42;;;4.40;96.90;;;;;;5021123;28;20188;-78
2021/11/26 11:20:34;;;;;;;34.80;18.15;;;4.50;97.10;;;;;;5006732;28;20022;-77
2021/11/26 11:22:59;;;;;;;34.90;17.23;;;4.40;97.00;;;;;;5009095;28;20026;-77
2021/11/26 11:25:27;;;;;;;35.55;17.30;;;4.40;96.80;;;;;;5004330;28;20037;-77
2021/11/26 11:28:04;;;;;;;30.58;17.77;;;4.40;96.80;;;;;;5007532;28;20022;-77
2021/11/26 11:30:30;;;;;;;31.80;16.58;;;4.50;97.00;;;;;;5020274;28;20037;-77
2021/11/26 11:32:56;;;;;;;33.22;17.02;;;4.50;97.00;;;;;;5010557;28;20462;-77
2021/11/26 11:35:24;;;;;;;30.73;16.88;;;4.60;96.50;;;;;;5009271;28;20487;-77
2021/11/26 11:37:53;;;;;;;37.13;16.67;;;4.70;96.70;;;;;;5009952;28;20037;-77
2021/11/26 11:40:34;;;;;;;39.03;17.83;;;4.70;96.50;;;;;;5007987;28;20180;-78
2021/11/26 11:43:13;;;;;;;26.45;15.55;;;4.80;96.50;;;;;;5007064;28;20057;-78
2021/11/26 11:45:41;;;;;;;33.78;16.02;;;4.80;96.20;;;;;;5000164;28;20486;-77
2021/11/26 11:48:09;;;;;;;33.53;15.93;;;4.80;96.30;;;;;;5007096;28;20552;-77
2021/11/26 11:50:45;;;;;;;35.88;15.85;;;4.70;96.10;;;;;;5004591;28;21901;-77
2021/11/26 11:53:29;;;;;;;36.97;15.07;;;4.80;96.00;;;;;;5014889;28;20079;-77
2021/11/26 11:56:21;;;;;;;30.88;15.07;;;4.80;96.10;;;;;;5006161;28;20032;-77
2021/11/26 11:58:48;;;;;;;34.88;16.08;;;4.80;96.10;;;;;;5005076;28;20076;-76
2021/11/26 12:01:18;;;;;;;26.23;14.02;;;4.80;95.70;;;;;;5002240;28;20022;-77
2021/11/26 12:03:44;;;;;;;30.10;14.10;;;4.80;95.10;;;;;;5008585;28;20026;-77
2021/11/26 12:06:10;;;;;;;26.83;12.75;;;4.90;95.40;;;;;;5008791;28;20088;-77
2021/11/26 12:08:54;;;;;;;27.65;13.32;;;4.90;94.70;;;;;;5006957;28;20490;-77
2021/11/26 12:11:34;;;;;;;22.98;11.93;;;4.90;94.60;;;;;;5001430;28;20099;-77
2021/11/26 12:14:08;;;;;;;19.75;11.05;;;4.90;94.20;;;;;;5008146;28;20137;-77
2021/11/26 12:17:05;;;;;;;25.15;11.48;;;5.00;94.40;;;;;;5003480;28;20101;-77
2021/11/26 12:19:31;;;;;;;22.50;11.00;;;5.10;94.80;;;;;;5007657;28;20125;-77
2021/11/26 12:21:57;;;;;;;23.63;10.50;;;5.30;94.50;;;;;;5008754;28;20450;-77
2021/11/26 12:24:33;;;;;;;24.50;11.60;;;5.40;94.50;;;;;;5007513;28;20030;-77
2021/11/26 12:26:59;;;;;;;17.05;10.05;;;5.40;94.20;;;;;;5010382;28;20133;-77
2021/11/26 12:29:41;;;;;;;21.08;10.07;;;5.30;93.60;;;;;;5006537;28;20450;-77
2021/11/26 12:32:17;;;;;;;18.92;9.00;;;5.20;93.30;;;;;;5009014;28;20029;-77
2021/11/26 12:34:45;;;;;;;18.25;9.15;;;5.00;93.30;;;;;;5004160;28;20095;-78
2021/11/26 12:37:23;;;;;;;18.90;9.00;;;5.00;93.90;;;;;;5006369;28;20026;-78
2021/11/26 12:39:51;;;;;;;17.02;9.00;;;5.00;93.70;;;;;;5006831;28;20021;-77
2021/11/26 12:42:18;;;;;;;18.13;8.60;;;4.90;94.10;;;;;;5008519;28;20068;-77